sensor_id;sensor_type;location;lat;lon;timestamp;P1;durP1;ratioP1;P2;durP2;ratioP2
61399;SDS011;47269;48.182;-1.946;2023-02-13T06:02:08;17.70;;;5.95;;
61399;SDS011;47269;48.182;-1.946;2023-02-13T06:04:33;11.82;;;5.68;;
61399;SDS011;47269;48.182;-1.946;2023-02-13T06:06:59;11.30;;;6.45;;
61399;SDS011;47269;48.182;-1.946;2023-02-13T06:09:25;12.02;;;5.72;;
61399;SDS011;47269;48.182;-1.946;2023-02-13T06:11:50;11.48;;;7.30;;
61399;SDS011;47269;48.182;-1.946;2023-02-13T06:14:16;13.45;;;5.78;;
61399;SDS011;47269;48.182;-1.946;2023-02-13T06:16:42;19.25;;;7.45;;
61399;SDS011;47269;48.182;-1.946;2023-02-13T06:19:07;16.15;;;7.25;;
61399;SDS011;47269;48.182;-1.946;2023-02-13T06:21:33;12.93;;;5.88;;
61399;SDS011;47269;48.182;-1.946;2023-02-13T06:24:02;16.90;;;5.95;;
61399;SDS011;47269;48.182;-1.946;2023-02-13T06:26:29;11.30;;;5.38;;
61399;SDS011;47269;48.182;-1.946;2023-02-13T06:28:54;9.75;;;6.53;;
61399;SDS011;47269;48.182;-1.946;2023-02-13T06:31:20;9.07;;;4.88;;
61399;SDS011;47269;48.182;-1.946;2023-02-13T06:33:46;30.45;;;6.97;;
61399;SDS011;47269;48.182;-1.946;2023-02-13T06:36:11;7.68;;;4.38;;
61399;SDS011;47269;48.182;-1.946;2023-02-13T06:38:37;10.35;;;6.35;;
61399;SDS011;47269;48.182;-1.946;2023-02-13T06:43:56;10.20;;;5.82;;
61399;SDS011;47269;48.182;-1.946;2023-02-13T06:46:22;13.95;;;6.22;;
61399;SDS011;47269;48.182;-1.946;2023-02-13T06:48:48;8.15;;;5.35;;
61399;SDS011;47269;48.182;-1.946;2023-02-13T06:51:13;8.98;;;4.90;;
61399;SDS011;47269;48.182;-1.946;2023-02-13T06:53:39;16.55;;;7.18;;
61399;SDS011;47269;48.182;-1.946;2023-02-13T06:56:05;10.05;;;5.32;;
61399;SDS011;47269;48.182;-1.946;2023-02-13T06:58:31;16.15;;;8.38;;
61399;SDS011;47269;48.182;-1.946;2023-02-13T07:00:58;12.07;;;6.45;;
61399;SDS011;47269;48.182;-1.946;2023-02-13T07:03:24;10.10;;;5.47;;
61399;SDS011;47269;48.182;-1.946;2023-02-13T07:05:50;10.43;;;5.25;;
61399;SDS011;47269;48.182;-1.946;2023-02-13T07:08:18;9.35;;;5.18;;
61399;SDS011;47269;48.182;-1.946;2023-02-13T07:10:44;14.15;;;6.10;;
61399;SDS011;47269;48.182;-1.946;2023-02-13T07:13:09;32.67;;;6.88;;
61399;SDS011;47269;48.182;-1.946;2023-02-13T07:15:35;14.23;;;6.18;;
61399;SDS011;47269;48.182;-1.946;2023-02-13T07:18:02;13.23;;;6.78;;
61399;SDS011;47269;48.182;-1.946;2023-02-13T07:20:28;9.70;;;5.65;;
61399;SDS011;47269;48.182;-1.946;2023-02-13T07:22:57;12.60;;;6.68;;
61399;SDS011;47269;48.182;-1.946;2023-02-13T07:25:28;12.15;;;6.38;;
61399;SDS011;47269;48.182;-1.946;2023-02-13T07:27:54;9.07;;;4.75;;
61399;SDS011;47269;48.182;-1.946;2023-02-13T07:30:24;14.67;;;7.37;;
61399;SDS011;47269;48.182;-1.946;2023-02-13T07:32:50;11.35;;;4.93;;
61399;SDS011;47269;48.182;-1.946;2023-02-13T07:35:16;9.77;;;5.35;;
61399;SDS011;47269;48.182;-1.946;2023-02-13T07:37:41;19.38;;;8.30;;
61399;SDS011;47269;48.182;-1.946;2023-02-13T07:40:07;7.95;;;4.97;;
61399;SDS011;47269;48.182;-1.946;2023-02-13T07:42:33;9.80;;;4.32;;
61399;SDS011;47269;48.182;-1.946;2023-02-13T07:44:59;11.23;;;6.03;;
61399;SDS011;47269;48.182;-1.946;2023-02-13T07:47:25;12.45;;;6.60;;
61399;SDS011;47269;48.182;-1.946;2023-02-13T07:49:51;14.93;;;6.68;;
61399;SDS011;47269;48.182;-1.946;2023-02-13T07:52:18;14.27;;;6.85;;
61399;SDS011;47269;48.182;-1.946;2023-02-13T07:54:44;15.63;;;7.80;;
61399;SDS011;47269;48.182;-1.946;2023-02-13T07:57:13;17.58;;;6.60;;
61399;SDS011;47269;48.182;-1.946;2023-02-13T07:59:40;16.83;;;6.63;;
61399;SDS011;47269;48.182;-1.946;2023-02-13T08:02:09;9.40;;;6.43;;
61399;SDS011;47269;48.182;-1.946;2023-02-13T08:04:40;11.60;;;6.55;;
61399;SDS011;47269;48.182;-1.946;2023-02-13T08:07:10;35.75;;;8.68;;
61399;SDS011;47269;48.182;-1.946;2023-02-13T08:09:36;16.17;;;7.90;;
61399;SDS011;47269;48.182;-1.946;2023-02-13T08:12:20;10.85;;;6.40;;
61399;SDS011;47269;48.182;-1.946;2023-02-13T08:14:46;26.40;;;8.38;;
61399;SDS011;47269;48.182;-1.946;2023-02-13T08:17:12;21.05;;;8.93;;
61399;SDS011;47269;48.182;-1.946;2023-02-13T08:19:38;22.27;;;7.70;;
61399;SDS011;47269;48.182;-1.946;2023-02-13T08:22:03;11.65;;;6.28;;
61399;SDS011;47269;48.182;-1.946;2023-02-13T08:24:29;14.93;;;6.32;;
61399;SDS011;47269;48.182;-1.946;2023-02-13T08:26:56;12.65;;;7.07;;
61399;SDS011;47269;48.182;-1.946;2023-02-13T08:29:21;24.35;;;7.80;;
61399;SDS011;47269;48.182;-1.946;2023-02-13T08:31:47;22.17;;;10.45;;
61399;SDS011;47269;48.182;-1.946;2023-02-13T08:34:13;10.80;;;6.45;;
61399;SDS011;47269;48.182;-1.946;2023-02-13T08:36:38;13.63;;;6.88;;
61399;SDS011;47269;48.182;-1.946;2023-02-13T08:39:04;12.55;;;6.78;;
61399;SDS011;47269;48.182;-1.946;2023-02-13T08:41:30;13.95;;;7.07;;
61399;SDS011;47269;48.182;-1.946;2023-02-13T08:43:56;14.60;;;7.63;;
61399;SDS011;47269;48.182;-1.946;2023-02-13T08:46:21;12.82;;;8.25;;
61399;SDS011;47269;48.182;-1.946;2023-02-13T08:48:47;13.85;;;7.78;;
61399;SDS011;47269;48.182;-1.946;2023-02-13T08:51:13;14.32;;;8.20;;
61399;SDS011;47269;48.182;-1.946;2023-02-13T08:53:39;13.23;;;7.72;;
61399;SDS011;47269;48.182;-1.946;2023-02-13T08:56:05;20.05;;;10.43;;
61399;SDS011;47269;48.182;-1.946;2023-02-13T08:58:31;22.35;;;10.90;;
61399;SDS011;47269;48.182;-1.946;2023-02-13T09:00:57;19.33;;;8.82;;
61399;SDS011;47269;48.182;-1.946;2023-02-13T09:03:23;16.10;;;7.30;;
61399;SDS011;47269;48.182;-1.946;2023-02-13T09:05:48;11.50;;;6.80;;
61399;SDS011;47269;48.182;-1.946;2023-02-13T09:08:14;12.40;;;8.57;;
61399;SDS011;47269;48.182;-1.946;2023-02-13T09:10:40;20.02;;;8.90;;
61399;SDS011;47269;48.182;-1.946;2023-02-13T09:13:10;20.80;;;9.43;;
61399;SDS011;47269;48.182;-1.946;2023-02-13T09:15:38;18.52;;;9.35;;
61399;SDS011;47269;48.182;-1.946;2023-02-13T09:18:06;20.00;;;7.90;;
61399;SDS011;47269;48.182;-1.946;2023-02-13T09:20:32;15.88;;;7.47;;
61399;SDS011;47269;48.182;-1.946;2023-02-13T09:22:58;20.95;;;9.95;;
61399;SDS011;47269;48.182;-1.946;2023-02-13T09:25:24;15.40;;;7.88;;
61399;SDS011;47269;48.182;-1.946;2023-02-13T09:27:50;14.20;;;6.32;;
61399;SDS011;47269;48.182;-1.946;2023-02-13T09:30:15;14.35;;;8.10;;
61399;SDS011;47269;48.182;-1.946;2023-02-13T09:32:47;19.13;;;7.65;;
61399;SDS011;47269;48.182;-1.946;2023-02-13T09:35:14;18.98;;;9.10;;
61399;SDS011;47269;48.182;-1.946;2023-02-13T09:37:40;16.33;;;8.98;;
61399;SDS011;47269;48.182;-1.946;2023-02-13T09:40:12;17.52;;;9.18;;
61399;SDS011;47269;48.182;-1.946;2023-02-13T09:42:43;19.17;;;10.13;;
61399;SDS011;47269;48.182;-1.946;2023-02-13T09:45:11;19.95;;;10.57;;
61399;SDS011;47269;48.182;-1.946;2023-02-13T09:47:43;18.60;;;9.60;;
61399;SDS011;47269;48.182;-1.946;2023-02-13T09:50:17;19.40;;;9.50;;
61399;SDS011;47269;48.182;-1.946;2023-02-13T09:52:53;20.98;;;9.80;;
61399;SDS011;47269;48.182;-1.946;2023-02-13T09:58:38;17.83;;;9.13;;
61399;SDS011;47269;48.182;-1.946;2023-02-13T10:00:57;12.60;;;7.13;;
61399;SDS011;47269;48.182;-1.946;2023-02-13T10:03:42;19.42;;;11.02;;
61399;SDS011;47269;48.182;-1.946;2023-02-13T10:06:46;25.48;;;11.15;;
61399;SDS011;47269;48.182;-1.946;2023-02-13T10:14:49;20.55;;;9.30;;
61399;SDS011;47269;48.182;-1.946;2023-02-13T10:17:29;23.23;;;10.55;;
61399;SDS011;47269;48.182;-1.946;2023-02-13T10:20:04;21.60;;;12.68;;
61399;SDS011;47269;48.182;-1.946;2023-02-13T10:22:51;23.77;;;13.50;;
61399;SDS011;47269;48.182;-1.946;2023-02-13T10:25:24;23.02;;;9.80;;
61399;SDS011;47269;48.182;-1.946;2023-02-13T10:28:03;20.23;;;11.13;;
61399;SDS011;47269;48.182;-1.946;2023-02-13T10:33:22;17.75;;;9.68;;
61399;SDS011;47269;48.182;-1.946;2023-02-13T10:36:14;20.02;;;9.95;;
61399;SDS011;47269;48.182;-1.946;2023-02-13T10:41:36;23.83;;;11.50;;
61399;SDS011;47269;48.182;-1.946;2023-02-13T10:44:31;21.45;;;11.77;;
61399;SDS011;47269;48.182;-1.946;2023-02-13T10:55:24;24.08;;;11.80;;
61399;SDS011;47269;48.182;-1.946;2023-02-13T10:58:14;20.83;;;9.15;;
61399;SDS011;47269;48.182;-1.946;2023-02-13T11:00:46;25.95;;;13.80;;
61399;SDS011;47269;48.182;-1.946;2023-02-13T11:03:20;25.98;;;14.48;;
61399;SDS011;47269;48.182;-1.946;2023-02-13T11:05:48;24.13;;;12.32;;
61399;SDS011;47269;48.182;-1.946;2023-02-13T11:08:30;29.38;;;14.25;;
61399;SDS011;47269;48.182;-1.946;2023-02-13T11:11:26;20.80;;;12.43;;
61399;SDS011;47269;48.182;-1.946;2023-02-13T11:14:06;24.35;;;12.73;;
61399;SDS011;47269;48.182;-1.946;2023-02-13T11:17:06;20.73;;;11.27;;
61399;SDS011;47269;48.182;-1.946;2023-02-13T11:19:33;23.80;;;11.85;;
61399;SDS011;47269;48.182;-1.946;2023-02-13T11:22:07;32.90;;;12.45;;
61399;SDS011;47269;48.182;-1.946;2023-02-13T11:24:38;17.50;;;10.88;;
61399;SDS011;47269;48.182;-1.946;2023-02-13T11:27:07;26.10;;;13.95;;
61399;SDS011;47269;48.182;-1.946;2023-02-13T11:29:38;24.95;;;13.75;;
61399;SDS011;47269;48.182;-1.946;2023-02-13T11:32:24;26.10;;;13.05;;
61399;SDS011;47269;48.182;-1.946;2023-02-13T11:34:51;20.65;;;12.68;;
61399;SDS011;47269;48.182;-1.946;2023-02-13T11:37:29;22.73;;;12.85;;
61399;SDS011;47269;48.182;-1.946;2023-02-13T11:39:56;25.50;;;13.07;;
61399;SDS011;47269;48.182;-1.946;2023-02-13T11:44:52;23.10;;;12.80;;
61399;SDS011;47269;48.182;-1.946;2023-02-13T11:47:29;28.45;;;15.13;;
61399;SDS011;47269;48.182;-1.946;2023-02-13T11:49:58;24.45;;;12.00;;
61399;SDS011;47269;48.182;-1.946;2023-02-13T11:52:28;25.67;;;13.82;;
61399;SDS011;47269;48.182;-1.946;2023-02-13T11:54:58;26.70;;;14.88;;
61399;SDS011;47269;48.182;-1.946;2023-02-13T11:59:59;21.58;;;12.95;;
61399;SDS011;47269;48.182;-1.946;2023-02-13T12:02:46;22.23;;;13.68;;
61399;SDS011;47269;48.182;-1.946;2023-02-13T12:05:17;22.50;;;13.20;;
61399;SDS011;47269;48.182;-1.946;2023-02-13T12:07:45;26.55;;;14.77;;
61399;SDS011;47269;48.182;-1.946;2023-02-13T12:10:22;21.10;;;13.27;;
61399;SDS011;47269;48.182;-1.946;2023-02-13T12:12:58;22.33;;;13.13;;
61399;SDS011;47269;48.182;-1.946;2023-02-13T12:15:34;22.65;;;13.70;;
61399;SDS011;47269;48.182;-1.946;2023-02-13T12:23:32;22.20;;;14.25;;
61399;SDS011;47269;48.182;-1.946;2023-02-13T12:28:49;20.67;;;12.65;;
61399;SDS011;47269;48.182;-1.946;2023-02-13T12:39:34;21.58;;;13.32;;
61399;SDS011;47269;48.182;-1.946;2023-02-13T12:47:52;19.77;;;13.25;;
61399;SDS011;47269;48.182;-1.946;2023-02-13T12:50:55;20.88;;;13.77;;
61399;SDS011;47269;48.182;-1.946;2023-02-13T13:01:25;20.65;;;14.18;;
61399;SDS011;47269;48.182;-1.946;2023-02-13T13:06:55;20.67;;;13.40;;
61399;SDS011;47269;48.182;-1.946;2023-02-13T13:15:30;18.90;;;13.88;;
61399;SDS011;47269;48.182;-1.946;2023-02-13T13:18:05;20.42;;;13.45;;
61399;SDS011;47269;48.182;-1.946;2023-02-13T13:28:37;18.55;;;13.43;;
61399;SDS011;47269;48.182;-1.946;2023-02-13T13:31:10;21.23;;;13.45;;
61399;SDS011;47269;48.182;-1.946;2023-02-13T13:33:39;20.27;;;13.75;;
61399;SDS011;47269;48.182;-1.946;2023-02-13T13:41:42;18.48;;;13.00;;
61399;SDS011;47269;48.182;-1.946;2023-02-13T13:44:18;18.80;;;12.60;;
61399;SDS011;47269;48.182;-1.946;2023-02-13T13:49:56;19.15;;;14.00;;
61399;SDS011;47269;48.182;-1.946;2023-02-13T13:52:31;18.40;;;13.10;;
61399;SDS011;47269;48.182;-1.946;2023-02-13T13:55:04;18.13;;;13.57;;
61399;SDS011;47269;48.182;-1.946;2023-02-13T14:02:49;18.80;;;12.60;;
61399;SDS011;47269;48.182;-1.946;2023-02-13T14:05:34;17.83;;;12.63;;
61399;SDS011;47269;48.182;-1.946;2023-02-13T14:13:50;18.30;;;12.57;;
61399;SDS011;47269;48.182;-1.946;2023-02-13T14:19:02;18.30;;;13.45;;
61399;SDS011;47269;48.182;-1.946;2023-02-13T14:21:30;16.92;;;11.85;;
61399;SDS011;47269;48.182;-1.946;2023-02-13T14:23:56;18.58;;;12.95;;
61399;SDS011;47269;48.182;-1.946;2023-02-13T14:26:37;17.65;;;12.93;;
61399;SDS011;47269;48.182;-1.946;2023-02-13T14:31:59;18.40;;;12.95;;
61399;SDS011;47269;48.182;-1.946;2023-02-13T14:34:33;17.92;;;13.15;;
61399;SDS011;47269;48.182;-1.946;2023-02-13T14:37:05;17.77;;;13.02;;
61399;SDS011;47269;48.182;-1.946;2023-02-13T14:39:34;17.13;;;12.50;;
61399;SDS011;47269;48.182;-1.946;2023-02-13T14:42:01;17.52;;;13.25;;
61399;SDS011;47269;48.182;-1.946;2023-02-13T14:44:32;19.45;;;13.50;;
61399;SDS011;47269;48.182;-1.946;2023-02-13T14:47:04;17.42;;;13.23;;
61399;SDS011;47269;48.182;-1.946;2023-02-13T14:49:38;17.00;;;12.82;;
61399;SDS011;47269;48.182;-1.946;2023-02-13T14:52:28;18.85;;;13.80;;
61399;SDS011;47269;48.182;-1.946;2023-02-13T14:55:02;18.95;;;13.98;;
61399;SDS011;47269;48.182;-1.946;2023-02-13T14:57:32;19.10;;;13.95;;
61399;SDS011;47269;48.182;-1.946;2023-02-13T15:00:11;27.27;;;19.75;;
61399;SDS011;47269;48.182;-1.946;2023-02-13T15:02:41;21.17;;;13.70;;
61399;SDS011;47269;48.182;-1.946;2023-02-13T15:05:15;18.77;;;12.85;;
61399;SDS011;47269;48.182;-1.946;2023-02-13T15:07:49;17.35;;;12.48;;
61399;SDS011;47269;48.182;-1.946;2023-02-13T15:12:55;15.77;;;11.95;;
61399;SDS011;47269;48.182;-1.946;2023-02-13T15:15:30;17.77;;;13.25;;
61399;SDS011;47269;48.182;-1.946;2023-02-13T15:18:02;21.60;;;13.75;;
61399;SDS011;47269;48.182;-1.946;2023-02-13T15:20:36;18.35;;;13.90;;
61399;SDS011;47269;48.182;-1.946;2023-02-13T15:23:04;19.00;;;12.52;;
61399;SDS011;47269;48.182;-1.946;2023-02-13T15:25:32;16.00;;;12.48;;
61399;SDS011;47269;48.182;-1.946;2023-02-13T15:30:28;16.13;;;9.50;;
61399;SDS011;47269;48.182;-1.946;2023-02-13T15:33:13;15.70;;;10.82;;
61399;SDS011;47269;48.182;-1.946;2023-02-13T15:35:41;15.98;;;11.18;;
61399;SDS011;47269;48.182;-1.946;2023-02-13T15:38:22;16.98;;;12.27;;
61399;SDS011;47269;48.182;-1.946;2023-02-13T15:41:04;14.63;;;11.13;;
61399;SDS011;47269;48.182;-1.946;2023-02-13T15:48:48;17.98;;;12.55;;
61399;SDS011;47269;48.182;-1.946;2023-02-13T15:51:18;15.45;;;11.35;;
61399;SDS011;47269;48.182;-1.946;2023-02-13T15:56:47;17.45;;;12.23;;
61399;SDS011;47269;48.182;-1.946;2023-02-13T15:59:15;18.70;;;13.02;;
61399;SDS011;47269;48.182;-1.946;2023-02-13T16:01:43;18.77;;;13.38;;
61399;SDS011;47269;48.182;-1.946;2023-02-13T16:04:11;17.02;;;12.70;;
61399;SDS011;47269;48.182;-1.946;2023-02-13T16:06:39;19.23;;;13.25;;
61399;SDS011;47269;48.182;-1.946;2023-02-13T16:09:22;19.27;;;12.90;;
61399;SDS011;47269;48.182;-1.946;2023-02-13T16:11:56;16.73;;;12.50;;
61399;SDS011;47269;48.182;-1.946;2023-02-13T16:14:28;19.23;;;12.63;;
61399;SDS011;47269;48.182;-1.946;2023-02-13T16:22:23;20.85;;;14.70;;
61399;SDS011;47269;48.182;-1.946;2023-02-13T16:25:26;22.00;;;14.60;;
61399;SDS011;47269;48.182;-1.946;2023-02-13T16:27:56;23.70;;;13.20;;
61399;SDS011;47269;48.182;-1.946;2023-02-13T16:35:49;19.73;;;13.43;;
61399;SDS011;47269;48.182;-1.946;2023-02-13T16:38:29;23.40;;;14.52;;
61399;SDS011;47269;48.182;-1.946;2023-02-13T16:41:00;23.58;;;13.95;;
61399;SDS011;47269;48.182;-1.946;2023-02-13T16:43:33;20.95;;;14.13;;
61399;SDS011;47269;48.182;-1.946;2023-02-13T17:07:33;26.65;;;14.63;;
61399;SDS011;47269;48.182;-1.946;2023-02-13T17:10:03;22.50;;;14.27;;
61399;SDS011;47269;48.182;-1.946;2023-02-13T17:12:41;24.95;;;14.32;;
61399;SDS011;47269;48.182;-1.946;2023-02-13T17:15:09;25.33;;;15.45;;
61399;SDS011;47269;48.182;-1.946;2023-02-13T17:17:38;26.55;;;15.55;;
61399;SDS011;47269;48.182;-1.946;2023-02-13T17:20:04;27.45;;;14.95;;
61399;SDS011;47269;48.182;-1.946;2023-02-13T17:22:38;28.30;;;15.27;;
61399;SDS011;47269;48.182;-1.946;2023-02-13T17:25:07;30.02;;;14.70;;
61399;SDS011;47269;48.182;-1.946;2023-02-13T17:27:40;24.55;;;14.93;;
61399;SDS011;47269;48.182;-1.946;2023-02-13T17:30:07;25.05;;;15.85;;
61399;SDS011;47269;48.182;-1.946;2023-02-13T17:32:38;29.20;;;15.18;;
61399;SDS011;47269;48.182;-1.946;2023-02-13T17:35:04;25.20;;;14.50;;
61399;SDS011;47269;48.182;-1.946;2023-02-13T17:37:30;23.55;;;14.65;;
61399;SDS011;47269;48.182;-1.946;2023-02-13T17:39:57;26.25;;;16.23;;
61399;SDS011;47269;48.182;-1.946;2023-02-13T17:42:24;25.75;;;15.93;;
61399;SDS011;47269;48.182;-1.946;2023-02-13T17:44:52;26.73;;;15.25;;
61399;SDS011;47269;48.182;-1.946;2023-02-13T17:47:19;26.83;;;15.32;;
61399;SDS011;47269;48.182;-1.946;2023-02-13T17:49:46;24.85;;;15.55;;
61399;SDS011;47269;48.182;-1.946;2023-02-13T17:52:23;25.58;;;16.00;;
61399;SDS011;47269;48.182;-1.946;2023-02-13T17:54:52;27.55;;;15.40;;
61399;SDS011;47269;48.182;-1.946;2023-02-13T17:57:18;29.10;;;16.15;;
61399;SDS011;47269;48.182;-1.946;2023-02-13T17:59:44;28.05;;;16.92;;
61399;SDS011;47269;48.182;-1.946;2023-02-13T18:02:14;34.80;;;18.83;;
61399;SDS011;47269;48.182;-1.946;2023-02-13T18:04:40;30.83;;;16.80;;
61399;SDS011;47269;48.182;-1.946;2023-02-13T18:07:06;32.75;;;19.17;;
61399;SDS011;47269;48.182;-1.946;2023-02-13T18:09:32;33.45;;;21.85;;
61399;SDS011;47269;48.182;-1.946;2023-02-13T18:11:57;34.80;;;21.65;;
61399;SDS011;47269;48.182;-1.946;2023-02-13T18:14:23;34.38;;;20.60;;
61399;SDS011;47269;48.182;-1.946;2023-02-13T18:16:49;30.70;;;20.23;;
61399;SDS011;47269;48.182;-1.946;2023-02-13T18:19:14;36.28;;;24.23;;
61399;SDS011;47269;48.182;-1.946;2023-02-13T18:21:40;39.00;;;23.50;;
61399;SDS011;47269;48.182;-1.946;2023-02-13T18:24:06;39.50;;;24.75;;
61399;SDS011;47269;48.182;-1.946;2023-02-13T18:26:33;29.60;;;19.98;;
61399;SDS011;47269;48.182;-1.946;2023-02-13T18:28:58;45.47;;;29.80;;
61399;SDS011;47269;48.182;-1.946;2023-02-13T18:31:24;57.10;;;36.15;;
61399;SDS011;47269;48.182;-1.946;2023-02-13T18:33:50;51.33;;;31.55;;
61399;SDS011;47269;48.182;-1.946;2023-02-13T18:36:16;42.53;;;23.33;;
61399;SDS011;47269;48.182;-1.946;2023-02-13T18:38:41;49.25;;;27.60;;
61399;SDS011;47269;48.182;-1.946;2023-02-13T18:41:07;39.40;;;24.23;;
61399;SDS011;47269;48.182;-1.946;2023-02-13T18:43:33;36.63;;;24.33;;
61399;SDS011;47269;48.182;-1.946;2023-02-13T18:45:58;32.00;;;19.70;;
61399;SDS011;47269;48.182;-1.946;2023-02-13T18:48:25;35.30;;;20.65;;
61399;SDS011;47269;48.182;-1.946;2023-02-13T18:50:50;36.53;;;21.52;;
61399;SDS011;47269;48.182;-1.946;2023-02-13T18:53:16;30.73;;;20.27;;
61399;SDS011;47269;48.182;-1.946;2023-02-13T18:55:42;40.08;;;22.80;;
61399;SDS011;47269;48.182;-1.946;2023-02-13T18:58:08;33.55;;;20.17;;
61399;SDS011;47269;48.182;-1.946;2023-02-13T19:00:33;33.90;;;19.27;;
61399;SDS011;47269;48.182;-1.946;2023-02-13T19:02:59;30.05;;;18.83;;
61399;SDS011;47269;48.182;-1.946;2023-02-13T19:05:25;26.50;;;17.50;;
61399;SDS011;47269;48.182;-1.946;2023-02-13T19:07:51;28.95;;;17.67;;
61399;SDS011;47269;48.182;-1.946;2023-02-13T19:10:17;34.38;;;17.73;;
61399;SDS011;47269;48.182;-1.946;2023-02-13T19:12:43;29.50;;;17.40;;
61399;SDS011;47269;48.182;-1.946;2023-02-13T19:15:08;30.77;;;16.40;;
61399;SDS011;47269;48.182;-1.946;2023-02-13T19:17:34;32.33;;;18.75;;
61399;SDS011;47269;48.182;-1.946;2023-02-13T19:20:02;29.60;;;18.10;;
61399;SDS011;47269;48.182;-1.946;2023-02-13T19:22:28;30.17;;;18.75;;
61399;SDS011;47269;48.182;-1.946;2023-02-13T19:24:53;35.42;;;18.98;;
61399;SDS011;47269;48.182;-1.946;2023-02-13T19:27:19;36.50;;;18.05;;
61399;SDS011;47269;48.182;-1.946;2023-02-13T19:29:45;31.73;;;21.20;;
61399;SDS011;47269;48.182;-1.946;2023-02-13T19:32:11;32.63;;;21.05;;
61399;SDS011;47269;48.182;-1.946;2023-02-13T19:34:37;27.08;;;18.67;;
61399;SDS011;47269;48.182;-1.946;2023-02-13T19:37:03;36.58;;;22.42;;
61399;SDS011;47269;48.182;-1.946;2023-02-13T19:39:29;30.02;;;20.02;;
61399;SDS011;47269;48.182;-1.946;2023-02-13T19:41:55;31.00;;;20.33;;
61399;SDS011;47269;48.182;-1.946;2023-02-13T19:44:20;36.08;;;20.17;;
61399;SDS011;47269;48.182;-1.946;2023-02-13T19:46:46;30.90;;;18.70;;
61399;SDS011;47269;48.182;-1.946;2023-02-13T19:49:12;33.05;;;19.02;;
61399;SDS011;47269;48.182;-1.946;2023-02-13T19:51:37;32.72;;;18.98;;
61399;SDS011;47269;48.182;-1.946;2023-02-13T19:54:06;26.50;;;18.90;;
61399;SDS011;47269;48.182;-1.946;2023-02-13T19:56:34;37.58;;;20.23;;
61399;SDS011;47269;48.182;-1.946;2023-02-13T19:59:01;40.85;;;22.48;;
61399;SDS011;47269;48.182;-1.946;2023-02-13T20:01:28;36.35;;;24.02;;
61399;SDS011;47269;48.182;-1.946;2023-02-13T20:03:54;48.17;;;28.45;;
61399;SDS011;47269;48.182;-1.946;2023-02-13T20:06:21;43.80;;;28.77;;
61399;SDS011;47269;48.182;-1.946;2023-02-13T20:08:52;45.42;;;28.20;;
61399;SDS011;47269;48.182;-1.946;2023-02-13T20:11:19;41.90;;;28.77;;
61399;SDS011;47269;48.182;-1.946;2023-02-13T20:13:46;47.63;;;27.60;;
61399;SDS011;47269;48.182;-1.946;2023-02-13T20:16:13;41.13;;;25.15;;
61399;SDS011;47269;48.182;-1.946;2023-02-13T20:18:40;41.13;;;24.23;;
61399;SDS011;47269;48.182;-1.946;2023-02-13T20:21:10;40.13;;;21.98;;
61399;SDS011;47269;48.182;-1.946;2023-02-13T20:23:38;37.60;;;23.70;;
61399;SDS011;47269;48.182;-1.946;2023-02-13T20:26:05;35.22;;;23.02;;
61399;SDS011;47269;48.182;-1.946;2023-02-13T20:28:34;39.28;;;24.90;;
61399;SDS011;47269;48.182;-1.946;2023-02-13T20:31:00;41.45;;;23.42;;
61399;SDS011;47269;48.182;-1.946;2023-02-13T20:33:31;42.17;;;22.65;;
61399;SDS011;47269;48.182;-1.946;2023-02-13T20:36:06;35.70;;;23.02;;
61399;SDS011;47269;48.182;-1.946;2023-02-13T20:38:35;36.28;;;19.55;;
61399;SDS011;47269;48.182;-1.946;2023-02-13T20:41:11;37.25;;;23.15;;
61399;SDS011;47269;48.182;-1.946;2023-02-13T20:43:39;34.55;;;20.00;;
61399;SDS011;47269;48.182;-1.946;2023-02-13T20:46:05;29.70;;;18.52;;
61399;SDS011;47269;48.182;-1.946;2023-02-13T20:48:33;26.55;;;18.80;;
61399;SDS011;47269;48.182;-1.946;2023-02-13T20:51:00;36.40;;;22.35;;
61399;SDS011;47269;48.182;-1.946;2023-02-13T20:53:28;37.10;;;22.20;;
61399;SDS011;47269;48.182;-1.946;2023-02-13T20:55:59;34.22;;;21.83;;
61399;SDS011;47269;48.182;-1.946;2023-02-13T20:58:31;38.25;;;23.75;;
61399;SDS011;47269;48.182;-1.946;2023-02-13T21:00:57;37.00;;;21.27;;
61399;SDS011;47269;48.182;-1.946;2023-02-13T21:03:23;36.58;;;21.80;;
61399;SDS011;47269;48.182;-1.946;2023-02-13T21:05:50;36.38;;;22.80;;
61399;SDS011;47269;48.182;-1.946;2023-02-13T21:08:15;35.55;;;21.55;;
61399;SDS011;47269;48.182;-1.946;2023-02-13T21:10:41;33.33;;;21.52;;
61399;SDS011;47269;48.182;-1.946;2023-02-13T21:13:07;34.42;;;23.65;;
61399;SDS011;47269;48.182;-1.946;2023-02-13T21:15:34;36.03;;;22.52;;
61399;SDS011;47269;48.182;-1.946;2023-02-13T21:18:00;34.15;;;21.48;;
61399;SDS011;47269;48.182;-1.946;2023-02-13T21:20:27;37.08;;;21.00;;
61399;SDS011;47269;48.182;-1.946;2023-02-13T21:22:54;36.03;;;21.83;;
61399;SDS011;47269;48.182;-1.946;2023-02-13T21:25:20;30.67;;;21.02;;
61399;SDS011;47269;48.182;-1.946;2023-02-13T21:27:46;34.97;;;20.65;;
61399;SDS011;47269;48.182;-1.946;2023-02-13T21:30:12;30.13;;;19.83;;
61399;SDS011;47269;48.182;-1.946;2023-02-13T21:32:38;40.58;;;22.45;;
61399;SDS011;47269;48.182;-1.946;2023-02-13T21:35:04;37.95;;;22.70;;
61399;SDS011;47269;48.182;-1.946;2023-02-13T21:37:30;36.65;;;19.13;;
61399;SDS011;47269;48.182;-1.946;2023-02-13T21:39:56;39.05;;;22.48;;
61399;SDS011;47269;48.182;-1.946;2023-02-13T21:42:22;37.40;;;21.52;;
61399;SDS011;47269;48.182;-1.946;2023-02-13T21:44:47;35.13;;;21.95;;
61399;SDS011;47269;48.182;-1.946;2023-02-13T21:47:13;33.60;;;19.95;;
61399;SDS011;47269;48.182;-1.946;2023-02-13T21:49:40;29.30;;;18.55;;
61399;SDS011;47269;48.182;-1.946;2023-02-13T21:52:06;25.92;;;17.52;;
61399;SDS011;47269;48.182;-1.946;2023-02-13T21:54:32;29.00;;;16.63;;
61399;SDS011;47269;48.182;-1.946;2023-02-13T21:56:58;26.33;;;15.13;;
61399;SDS011;47269;48.182;-1.946;2023-02-13T21:59:23;26.05;;;16.40;;
61399;SDS011;47269;48.182;-1.946;2023-02-13T22:01:49;30.45;;;17.92;;
61399;SDS011;47269;48.182;-1.946;2023-02-13T22:04:16;26.52;;;16.38;;
61399;SDS011;47269;48.182;-1.946;2023-02-13T22:06:45;27.27;;;16.80;;
61399;SDS011;47269;48.182;-1.946;2023-02-13T22:09:14;24.80;;;15.38;;
61399;SDS011;47269;48.182;-1.946;2023-02-13T22:11:40;27.00;;;16.08;;
61399;SDS011;47269;48.182;-1.946;2023-02-13T22:14:09;36.78;;;20.90;;
61399;SDS011;47269;48.182;-1.946;2023-02-13T22:16:37;31.60;;;23.20;;
61399;SDS011;47269;48.182;-1.946;2023-02-13T22:19:04;32.72;;;20.42;;
61399;SDS011;47269;48.182;-1.946;2023-02-13T22:21:32;38.05;;;21.98;;
61399;SDS011;47269;48.182;-1.946;2023-02-13T22:23:58;34.95;;;24.20;;
61399;SDS011;47269;48.182;-1.946;2023-02-13T22:26:25;36.00;;;20.80;;
61399;SDS011;47269;48.182;-1.946;2023-02-13T22:29:06;39.30;;;21.10;;
61399;SDS011;47269;48.182;-1.946;2023-02-13T22:31:34;34.95;;;21.70;;
61399;SDS011;47269;48.182;-1.946;2023-02-13T22:34:00;33.78;;;21.70;;
61399;SDS011;47269;48.182;-1.946;2023-02-13T22:36:26;32.75;;;21.35;;
61399;SDS011;47269;48.182;-1.946;2023-02-13T22:38:52;39.33;;;22.10;;
61399;SDS011;47269;48.182;-1.946;2023-02-13T22:41:19;31.52;;;18.45;;
61399;SDS011;47269;48.182;-1.946;2023-02-13T22:43:47;34.05;;;22.15;;
61399;SDS011;47269;48.182;-1.946;2023-02-13T22:46:14;36.83;;;18.90;;
61399;SDS011;47269;48.182;-1.946;2023-02-13T22:48:47;29.20;;;19.20;;
61399;SDS011;47269;48.182;-1.946;2023-02-13T22:51:17;36.13;;;19.85;;
61399;SDS011;47269;48.182;-1.946;2023-02-13T22:53:54;32.88;;;19.25;;
61399;SDS011;47269;48.182;-1.946;2023-02-13T22:56:21;34.45;;;20.73;;